createdAt,value
2022-10-06T00:02:13.824Z,49.58
2022-10-06T00:05:16.602Z,49.90
2022-10-06T00:08:55.617Z,49.93
2022-10-06T00:11:58.758Z,49.82
2022-10-06T00:15:02.782Z,49.78
2022-10-06T00:18:05.530Z,49.66
2022-10-06T00:21:08.255Z,50.01
2022-10-06T00:24:10.923Z,50.07
2022-10-06T00:27:13.571Z,49.33
2022-10-06T00:30:18.694Z,49.18
2022-10-06T00:33:21.365Z,49.51
2022-10-06T00:36:24.084Z,49.02
2022-10-06T00:39:26.827Z,49.17
2022-10-06T00:42:30.889Z,49.21
2022-10-06T00:45:38.690Z,49.30
2022-10-06T00:48:41.932Z,48.70
2022-10-06T00:51:46.859Z,50.35
2022-10-06T00:54:49.565Z,50.23
2022-10-06T00:57:53.611Z,50.17
2022-10-06T01:00:57.772Z,50.98
2022-10-06T01:04:02.496Z,50.90
2022-10-06T01:07:05.980Z,50.80
2022-10-06T01:10:09.335Z,51.39
2022-10-06T01:13:13.408Z,51.88
2022-10-06T01:16:23.216Z,51.69
2022-10-06T01:19:30.403Z,51.76
2022-10-06T01:22:35.987Z,51.31
2022-10-06T01:25:38.743Z,52.20
2022-10-06T01:28:41.636Z,51.42
2022-10-06T01:31:44.478Z,51.13
2022-10-06T01:34:47.240Z,52.64
2022-10-06T01:37:51.373Z,52.11
2022-10-06T01:40:54.526Z,51.90
2022-10-06T01:43:57.183Z,52.49
2022-10-06T01:46:59.843Z,52.32
2022-10-06T01:50:02.619Z,51.87
2022-10-06T01:53:06.806Z,52.12
2022-10-06T01:56:09.615Z,51.92
2022-10-06T01:59:12.243Z,51.52
2022-10-06T02:02:15.319Z,52.07
2022-10-06T02:05:18.136Z,52.69
2022-10-06T02:08:22.189Z,52.21
2022-10-06T02:11:24.818Z,52.46
2022-10-06T02:14:27.521Z,52.63
2022-10-06T02:17:30.271Z,52.40
2022-10-06T02:20:32.970Z,52.86
2022-10-06T02:23:37.006Z,51.93
2022-10-06T02:26:39.681Z,52.53
2022-10-06T02:29:42.331Z,52.30
2022-10-06T02:32:45.194Z,51.58
2022-10-06T02:35:48.568Z,51.96
2022-10-06T02:38:52.576Z,52.29
2022-10-06T02:41:55.684Z,52.38
2022-10-06T02:44:58.942Z,52.55
2022-10-06T02:48:01.764Z,52.80
2022-10-06T02:51:06.975Z,52.78
2022-10-06T02:54:11.034Z,52.22
2022-10-06T02:57:15.180Z,52.60
2022-10-06T03:00:17.994Z,52.33
2022-10-06T03:03:20.706Z,52.59
2022-10-06T03:06:24.272Z,52.63
2022-10-06T03:09:28.379Z,52.58
2022-10-06T03:12:31.542Z,52.40
2022-10-06T03:15:34.200Z,52.80
2022-10-06T03:18:36.861Z,53.05
2022-10-06T03:21:40.470Z,52.51
2022-10-06T03:24:44.531Z,52.70
2022-10-06T03:27:47.224Z,53.05
2022-10-06T03:30:49.881Z,52.64
2022-10-06T03:33:52.593Z,52.65
2022-10-06T03:36:55.227Z,52.85
2022-10-06T03:40:00.268Z,52.87
2022-10-06T03:43:02.939Z,52.59
2022-10-06T03:46:06.047Z,52.83
2022-10-06T03:49:09.282Z,52.85
2022-10-06T03:52:11.915Z,53.15
2022-10-06T03:55:16.048Z,52.62
2022-10-06T03:58:19.554Z,53.02
2022-10-06T04:01:26.176Z,52.79
2022-10-06T04:04:29.497Z,52.78
2022-10-06T04:07:32.116Z,52.16
2022-10-06T04:10:36.336Z,51.97
2022-10-06T04:13:39.421Z,52.81
2022-10-06T04:16:43.302Z,53.12
2022-10-06T04:19:46.074Z,52.77
2022-10-06T04:22:48.743Z,52.57
2022-10-06T04:25:58.915Z,52.48
2022-10-06T04:29:01.749Z,52.20
2022-10-06T04:32:04.452Z,52.28
2022-10-06T04:35:07.611Z,53.13
2022-10-06T04:38:10.244Z,53.03
2022-10-06T04:41:19.343Z,53.32
2022-10-06T04:44:22.048Z,52.78
2022-10-06T04:47:24.740Z,53.05
2022-10-06T04:50:27.499Z,52.36
2022-10-06T04:53:30.466Z,50.80
2022-10-06T04:56:34.674Z,52.60
2022-10-06T04:59:54.811Z,52.97
2022-10-06T05:02:57.494Z,51.26
2022-10-06T05:06:05.191Z,52.84
2022-10-06T05:09:08.773Z,52.72
2022-10-06T05:12:12.878Z,51.99
2022-10-06T05:15:15.752Z,53.00
2022-10-06T05:18:18.406Z,52.42
2022-10-06T05:21:22.321Z,51.14
2022-10-06T05:24:24.994Z,52.64
2022-10-06T05:27:29.087Z,52.51
2022-10-06T05:30:31.712Z,51.40
2022-10-06T05:33:35.363Z,51.95
2022-10-06T05:36:38.064Z,51.83
2022-10-06T05:39:40.686Z,52.88
2022-10-06T05:42:44.827Z,51.75
2022-10-06T05:45:54.313Z,51.80
2022-10-06T05:48:58.022Z,51.96
2022-10-06T05:52:00.618Z,50.83
2022-10-06T05:55:03.356Z,51.31
2022-10-06T05:58:07.428Z,51.62
2022-10-06T06:01:11.225Z,51.36
2022-10-06T06:04:14.398Z,51.12
2022-10-06T06:07:17.024Z,50.90
2022-10-06T06:10:19.753Z,50.38
2022-10-06T06:13:24.204Z,50.33
2022-10-06T06:16:27.201Z,51.66
2022-10-06T06:19:29.949Z,51.39
2022-10-06T06:22:34.965Z,51.02
2022-10-06T06:25:37.656Z,50.87
2022-10-06T06:28:42.398Z,50.58
2022-10-06T06:31:46.313Z,50.32
2022-10-06T06:34:49.075Z,50.22
2022-10-06T06:37:51.767Z,49.91
2022-10-06T06:40:54.650Z,49.84
2022-10-06T06:44:00.196Z,49.77
2022-10-06T06:47:02.890Z,49.72
2022-10-06T06:50:10.321Z,49.47
2022-10-06T06:53:16.279Z,49.46
2022-10-06T06:56:19.130Z,49.17
2022-10-06T06:59:23.246Z,49.37
2022-10-06T07:02:29.633Z,48.98
2022-10-06T07:05:33.463Z,49.05
2022-10-06T07:08:36.578Z,48.92
2022-10-06T07:11:39.873Z,48.78
2022-10-06T07:15:04.243Z,48.80
2022-10-06T07:18:24.699Z,51.37
2022-10-06T07:21:44.510Z,49.19
2022-10-06T07:25:05.328Z,49.10
2022-10-06T07:28:08.411Z,50.10
2022-10-06T07:31:13.866Z,49.45
2022-10-06T07:34:16.542Z,49.12
2022-10-06T07:37:19.656Z,49.46
2022-10-06T07:40:22.372Z,48.76
2022-10-06T07:43:25.056Z,48.66
2022-10-06T07:46:29.163Z,48.84
2022-10-06T07:49:31.922Z,48.62
2022-10-06T07:52:39.278Z,48.50
2022-10-06T07:55:44.608Z,48.14
2022-10-06T07:58:47.690Z,48.12
2022-10-06T08:01:52.958Z,48.54
2022-10-06T08:04:56.171Z,48.25
2022-10-06T08:08:00.021Z,48.13
2022-10-06T08:11:05.576Z,47.67
2022-10-06T08:14:08.457Z,48.00
2022-10-06T08:17:12.608Z,47.52
2022-10-06T08:20:17.857Z,47.34
2022-10-06T08:23:20.627Z,47.33
2022-10-06T08:26:23.823Z,47.01
2022-10-06T08:29:26.508Z,47.01
2022-10-06T08:32:30.527Z,47.00
2022-10-06T08:35:33.378Z,46.75
2022-10-06T08:38:37.122Z,46.05
2022-10-06T08:41:43.186Z,46.04
2022-10-06T08:44:48.632Z,46.31
2022-10-06T08:47:57.928Z,46.30
2022-10-06T08:51:06.758Z,46.24
2022-10-06T08:54:12.927Z,45.58
2022-10-06T08:57:18.727Z,45.73
2022-10-06T09:00:22.331Z,45.51
2022-10-06T09:03:29.562Z,45.89
2022-10-06T09:06:53.215Z,45.45
2022-10-06T09:10:04.432Z,45.53
2022-10-06T09:13:10.930Z,45.13
2022-10-06T09:16:17.179Z,46.06
2022-10-06T09:19:24.783Z,46.04
2022-10-06T09:22:30.775Z,45.96
2022-10-06T09:25:34.330Z,45.84
2022-10-06T09:28:37.054Z,45.71
2022-10-06T09:31:42.838Z,45.59
2022-10-06T09:34:49.878Z,45.40
2022-10-06T09:37:54.014Z,45.25
2022-10-06T09:40:56.859Z,45.62
2022-10-06T09:44:00.484Z,44.96
2022-10-06T09:47:03.175Z,44.95
2022-10-06T09:50:16.016Z,44.70
2022-10-06T09:53:18.715Z,44.61
2022-10-06T09:56:21.484Z,45.08
2022-10-06T09:59:29.676Z,44.75
2022-10-06T10:02:36.856Z,44.35
2022-10-06T10:05:47.181Z,45.03
2022-10-06T10:08:49.910Z,45.02
2022-10-06T10:12:20.893Z,44.78
2022-10-06T10:15:27.860Z,44.63
2022-10-06T10:18:31.477Z,44.05
2022-10-06T10:21:36.415Z,44.13
2022-10-06T10:24:49.156Z,44.12
2022-10-06T10:27:56.270Z,43.88
2022-10-06T10:31:01.805Z,43.84
2022-10-06T10:34:20.225Z,42.88
2022-10-06T10:37:31.958Z,43.42
2022-10-06T10:40:40.127Z,43.13
2022-10-06T10:43:48.041Z,43.41
2022-10-06T10:46:53.235Z,43.72
2022-10-06T10:49:59.545Z,41.77
2022-10-06T10:53:08.965Z,41.64
2022-10-06T10:56:12.988Z,41.33
2022-10-06T10:59:17.748Z,42.76
2022-10-06T11:02:21.412Z,42.01
2022-10-06T11:05:33.414Z,40.09
2022-10-06T11:08:42.996Z,40.99
2022-10-06T11:11:54.785Z,41.54
2022-10-06T11:14:59.848Z,41.39
2022-10-06T11:18:08.057Z,42.19
2022-10-06T11:21:14.235Z,42.44
2022-10-06T11:24:25.210Z,42.70
2022-10-06T11:27:35.836Z,41.58
2022-10-06T11:30:49.508Z,43.40
2022-10-06T11:33:54.290Z,41.44
2022-10-06T11:36:59.464Z,43.81
2022-10-06T11:40:11.009Z,43.33
2022-10-06T11:43:17.756Z,43.11
2022-10-06T11:46:32.106Z,41.97
2022-10-06T11:49:48.242Z,43.70
2022-10-06T11:52:53.548Z,42.44
2022-10-06T11:56:11.081Z,41.80
2022-10-06T11:59:24.552Z,42.62
2022-10-06T12:02:37.188Z,42.60
2022-10-06T12:05:56.902Z,41.79
2022-10-06T12:20:15.776Z,40.21
2022-10-06T12:23:22.700Z,41.30
2022-10-06T12:26:31.012Z,39.22
2022-10-06T12:29:42.114Z,38.89
2022-10-06T12:32:53.004Z,38.14
2022-10-06T12:36:02.279Z,40.03
2022-10-06T12:39:06.676Z,39.28
2022-10-06T12:42:19.095Z,37.04
2022-10-06T12:45:23.520Z,40.09
2022-10-06T12:48:31.341Z,38.83
2022-10-06T12:51:35.717Z,37.91
2022-10-06T12:54:41.536Z,38.59
2022-10-06T12:57:47.733Z,38.99
2022-10-06T13:00:50.475Z,40.80
2022-10-06T13:03:55.237Z,39.95
2022-10-06T13:06:58.343Z,37.60
2022-10-06T13:10:17.751Z,38.96
2022-10-06T13:13:24.430Z,37.25
2022-10-06T13:16:29.024Z,38.35
2022-10-06T13:19:33.273Z,36.68
2022-10-06T13:22:35.960Z,38.70
2022-10-06T13:25:42.713Z,38.28
2022-10-06T13:28:49.031Z,37.91
2022-10-06T13:31:53.189Z,36.27
2022-10-06T13:34:58.617Z,37.62
2022-10-06T13:38:03.943Z,39.03
2022-10-06T13:41:18.082Z,37.81
2022-10-06T13:44:30.008Z,36.88
2022-10-06T13:47:33.780Z,36.96
2022-10-06T13:50:41.791Z,37.61
2022-10-06T13:53:45.893Z,39.17
2022-10-06T13:56:49.033Z,38.83
2022-10-06T14:00:02.956Z,37.38
2022-10-06T14:03:09.888Z,38.04
2022-10-06T14:06:17.600Z,37.10
2022-10-06T14:09:22.993Z,38.44
2022-10-06T14:12:25.800Z,38.54
2022-10-06T14:15:30.824Z,39.48
2022-10-06T14:18:37.319Z,38.95
2022-10-06T14:21:42.123Z,37.81
2022-10-06T14:24:51.664Z,39.92
2022-10-06T14:27:54.746Z,40.57
2022-10-06T14:30:57.684Z,38.92
2022-10-06T14:34:00.831Z,38.69
2022-10-06T14:37:04.938Z,40.00
2022-10-06T14:40:11.980Z,40.23
2022-10-06T14:43:14.978Z,42.63
2022-10-06T14:46:17.792Z,42.40
2022-10-06T14:49:21.506Z,50.33
2022-10-06T14:52:25.677Z,51.44
2022-10-06T14:55:30.472Z,52.29
2022-10-06T14:58:33.399Z,54.14
2022-10-06T15:01:36.920Z,53.99
2022-10-06T15:04:39.581Z,56.87
2022-10-06T15:08:01.039Z,60.10
2022-10-06T15:11:03.723Z,59.45
2022-10-06T15:14:08.913Z,58.44
2022-10-06T15:17:11.659Z,64.94
2022-10-06T15:20:14.773Z,64.16
2022-10-06T15:23:18.873Z,60.15
2022-10-06T15:26:39.087Z,61.93
2022-10-06T15:29:42.604Z,61.12
2022-10-06T15:32:45.271Z,63.40
2022-10-06T15:35:50.607Z,62.08
2022-10-06T15:38:55.597Z,62.06
2022-10-06T15:41:58.547Z,59.80
2022-10-06T15:45:05.196Z,61.79
2022-10-06T15:48:10.486Z,68.66
2022-10-06T15:51:14.807Z,63.70
2022-10-06T15:54:20.370Z,67.62
2022-10-06T15:57:25.347Z,69.08
2022-10-06T16:00:28.005Z,66.20
2022-10-06T16:03:40.881Z,65.81
2022-10-06T16:06:54.078Z,66.96
2022-10-06T16:09:58.109Z,66.69
2022-10-06T16:13:00.759Z,64.89
2022-10-06T16:16:03.525Z,67.73
2022-10-06T16:19:06.493Z,74.53
2022-10-06T16:22:10.387Z,69.07
2022-10-06T16:25:14.445Z,72.13
2022-10-06T16:28:17.535Z,67.77
2022-10-06T16:31:20.531Z,73.02
2022-10-06T16:34:23.358Z,72.91
2022-10-06T16:37:25.982Z,72.74
2022-10-06T16:40:31.685Z,75.54
2022-10-06T16:43:35.675Z,73.64
2022-10-06T16:46:38.633Z,73.74
2022-10-06T16:49:41.399Z,74.43
2022-10-06T16:52:44.073Z,72.20
2022-10-06T16:55:48.075Z,75.39
2022-10-06T16:58:53.428Z,76.37
2022-10-06T17:01:56.149Z,78.48
2022-10-06T17:04:58.718Z,79.64
2022-10-06T17:08:03.681Z,78.80
2022-10-06T17:11:09.851Z,76.63
2022-10-06T17:14:12.923Z,77.60
2022-10-06T17:17:15.647Z,78.17
2022-10-06T17:20:18.630Z,77.47
2022-10-06T17:23:21.316Z,84.87
2022-10-06T17:26:27.633Z,85.00
2022-10-06T17:29:30.273Z,86.24
2022-10-06T17:32:32.977Z,85.85
2022-10-06T17:35:37.813Z,90.66
2022-10-06T17:38:43.113Z,87.28
2022-10-06T17:41:48.148Z,87.44
2022-10-06T17:44:51.602Z,84.84
2022-10-06T17:47:55.810Z,86.67
2022-10-06T17:50:59.751Z,82.91
2022-10-06T17:54:02.928Z,79.90
2022-10-06T17:57:08.091Z,81.23
2022-10-06T18:00:11.259Z,84.74
2022-10-06T18:03:13.972Z,81.72
2022-10-06T18:06:18.300Z,81.80
2022-10-06T18:09:21.529Z,83.10
2022-10-06T18:12:24.550Z,90.21
2022-10-06T18:15:27.260Z,89.42
2022-10-06T18:18:30.489Z,88.11
2022-10-06T18:21:37.366Z,88.69
2022-10-06T18:24:41.337Z,88.83
2022-10-06T18:27:47.635Z,81.74
2022-10-06T18:30:50.738Z,90.96
2022-10-06T18:37:18.499Z,92.04
2022-10-06T18:40:23.503Z,92.41
2022-10-06T18:43:27.945Z,87.77
2022-10-06T18:46:48.317Z,92.19
2022-10-06T18:49:52.681Z,96.27
2022-10-06T18:52:56.749Z,87.93
2022-10-06T18:55:59.383Z,91.74
2022-10-06T18:59:05.016Z,86.86
2022-10-06T19:02:07.811Z,84.22
2022-10-06T19:05:12.123Z,89.80
2022-10-06T19:08:15.688Z,90.90
2022-10-06T19:11:36.095Z,93.63
2022-10-06T19:14:47.032Z,90.54
2022-10-06T19:17:50.087Z,96.89
2022-10-06T19:20:53.077Z,92.72
2022-10-06T19:23:56.423Z,92.18
2022-10-06T19:26:59.586Z,100.00
2022-10-06T19:30:03.762Z,98.43
2022-10-06T19:33:06.727Z,93.68
2022-10-06T19:36:10.137Z,99.10
2022-10-06T19:39:13.563Z,100.00
2022-10-06T19:42:34.851Z,100.00
2022-10-06T19:45:38.976Z,100.00
2022-10-06T19:48:41.817Z,100.00
2022-10-06T19:51:44.518Z,100.00
2022-10-06T19:54:47.253Z,100.00
2022-10-06T19:57:51.614Z,100.00
2022-10-06T20:00:55.640Z,100.00
2022-10-06T20:03:58.589Z,100.00
2022-10-06T20:07:01.965Z,100.00
2022-10-06T20:10:04.818Z,100.00
2022-10-06T20:13:07.471Z,99.98
2022-10-06T20:16:12.750Z,100.00
2022-10-06T20:19:15.638Z,100.00
2022-10-06T20:22:18.279Z,100.00
2022-10-06T20:25:20.936Z,100.00
2022-10-06T20:28:23.661Z,100.00
2022-10-06T20:31:28.894Z,100.00
2022-10-06T20:34:32.316Z,100.00
2022-10-06T20:37:35.170Z,98.46
2022-10-06T20:40:40.084Z,71.27
2022-10-06T20:43:43.292Z,67.79
2022-10-06T20:46:47.341Z,63.08
2022-10-06T20:49:54.417Z,64.10
2022-10-06T20:52:57.674Z,60.54
2022-10-06T20:56:00.398Z,59.07
2022-10-06T20:59:03.480Z,58.70
2022-10-06T21:02:07.863Z,57.24
2022-10-06T21:05:10.729Z,56.52
2022-10-06T21:08:13.416Z,56.45
2022-10-06T21:11:17.609Z,55.56
2022-10-06T21:14:20.522Z,55.50
2022-10-06T21:17:24.567Z,54.75
2022-10-06T21:20:27.342Z,54.57
2022-10-06T21:23:30.173Z,54.41
2022-10-06T21:26:33.699Z,53.97
2022-10-06T21:29:36.420Z,53.62
2022-10-06T21:32:42.147Z,53.69
2022-10-06T21:35:45.261Z,53.52
2022-10-06T21:38:49.104Z,53.10
2022-10-06T21:41:51.872Z,52.67
2022-10-06T21:44:54.581Z,52.10
2022-10-06T21:47:59.042Z,52.17
2022-10-06T21:51:01.749Z,51.83
2022-10-06T21:54:04.876Z,51.87
2022-10-06T21:57:08.081Z,52.06
2022-10-06T22:00:11.716Z,51.83
2022-10-06T22:03:15.827Z,51.34
2022-10-06T22:06:19.768Z,51.67
2022-10-06T22:09:22.684Z,51.51
2022-10-06T22:12:25.324Z,51.67
2022-10-06T22:15:28.034Z,51.46
2022-10-06T22:18:32.683Z,51.55
2022-10-06T22:21:36.209Z,51.17
2022-10-06T22:24:38.964Z,51.37
2022-10-06T22:27:41.839Z,51.02
2022-10-06T22:30:44.833Z,51.03
2022-10-06T22:33:52.480Z,50.76
2022-10-06T22:36:55.222Z,50.74
2022-10-06T22:39:57.922Z,50.64
2022-10-06T22:43:00.565Z,50.81
2022-10-06T22:46:03.818Z,50.68
2022-10-06T22:49:08.214Z,50.94
2022-10-06T22:52:10.896Z,50.58
2022-10-06T22:55:13.713Z,50.60
2022-10-06T22:58:16.785Z,50.46
2022-10-06T23:01:19.736Z,50.30
2022-10-06T23:04:23.950Z,50.36
2022-10-06T23:07:26.701Z,50.60
2022-10-06T23:10:30.580Z,50.42
2022-10-06T23:13:33.257Z,50.52
2022-10-06T23:16:36.050Z,50.53
2022-10-06T23:19:40.158Z,50.27
2022-10-06T23:22:42.878Z,50.27
2022-10-06T23:25:45.574Z,50.13
2022-10-06T23:28:51.889Z,50.22
2022-10-06T23:31:54.626Z,49.99
2022-10-06T23:34:58.853Z,50.09
2022-10-06T23:38:01.645Z,49.98
2022-10-06T23:41:04.417Z,49.83
2022-10-06T23:44:07.154Z,49.64
2022-10-06T23:47:09.887Z,49.95
2022-10-06T23:50:13.954Z,49.97
2022-10-06T23:53:16.649Z,50.17
2022-10-06T23:56:20.858Z,50.04
2022-10-06T23:59:23.977Z,49.98
